Observations for DECIMOMANNU IT-AFB, Italy (LIED)

LIED 240855Z 15005KT CAVOK 33/21 Q1015 RMK SKC VIS MIN 9999 WIND THR35 15009KT WIND THR17 /////KT BLU   
LIED 240755Z 15005KT CAVOK 28/22 Q1015 RMK SKC VIS MIN 9999 WIND THR35 14006KT WIND THR17 /////KT BLU   
LIED 240655Z 11004KT CAVOK 24/20 Q1015 RMK SKC VIS MIN 9999 WIND THR35 13003KT WIND THR17 /////KT BLU   
LIED 240555Z 35003KT CAVOK 21/19 Q1015 RMK SKC VIS MIN 9999 WIND THR35 36004KT WIND THR17 /////KT BLU   
LIED 240455Z 30001KT CAVOK 19/17 Q1014 RMK SKC VIS MIN 9999 WIND THR35 28001KT WIND THR17 /////KT BLU   
LIED 240355Z 28002KT CAVOK 18/17 Q1014 RMK FEW FEW200 VIS MIN 9999 WIND THR35 28001KT WIND THR17 /////KT BLU
LIED 240255Z 32003KT CAVOK 19/17 Q1014 RMK SKC VIS MIN 9999 WIND THR35 33003KT WIND THR17 /////KT BLU   
LIED 240155Z 03004KT CAVOK 21/19 Q1014 RMK SKC VIS MIN 9999 WIND THR35 01005KT WIND THR17 /////KT BLU   
LIED 240055Z 05002KT CAVOK 21/20 Q1015  
LIED 240055Z 05002KT CAVOK 21/20 Q1015 RMK SKC VIS MIN 9999 WIND THR35 05002KT WIND THR17 /////KT BLU
LIED 232355Z 03004KT CAVOK 22/21 Q1015 RMK SKC VIS MIN 9999 WIND THR35 03003KT WIND THR17 /////KT BLU   
LIED 232255Z 09004KT CAVOK 23/22 Q1015 RMK SKC VIS MIN 9999 WIND THR35 09002KT WIND THR17 /////KT BLU   
LIED 232155Z 09004KT CAVOK 24/22 Q1014 RMK SKC VIS MIN 9999 WIND THR35 09004KT WIND THR17 /////KT BLU   
LIED 232055Z 10004KT CAVOK 24/22 Q1014 RMK SKC VIS MIN 9999 WIND THR35 10003KT WIND THR17 /////KT BLU   
LIED 231955Z 14006KT CAVOK 25/22 Q1013 RMK FEW FEW200 VIS MIN 9999 WIND THR35 15007KT WIND THR17 /////KT BLU
LIED 231855Z 13006KT CAVOK 25/22 Q1013  
LIED 231855Z 13006KT CAVOK 25/22 Q1013 RMK SCT SCT200 VIS MIN 9999 WIND THR35 14006KT WIND THR17 /////KT BLU
LIED 231755Z 14008KT CAVOK 27/23 Q1013 RMK SCT SCT200 VIS MIN 9999 WIND THR35 15009KT WIND THR17 /////KT BLU
LIED 231655Z 14009KT CAVOK 29/25 Q1013 RMK BKN BKN200 VIS MIN 9999 WIND THR35 15012KT WIND THR17 /////KT BLU
LIED 231555Z 15010KT CAVOK 30/25 Q1013 RMK BKN BKN200 VIS MIN 9999 WIND THR35 15011KT WIND THR17 /////KT BLU
LIED 231455Z 16011KT CAVOK 31/26 Q1013 RMK BKN BKN200 VIS MIN 9999 WIND THR35 15011KT WIND THR17 /////KT BLU
LIED 231355Z 16011KT CAVOK 32/26 Q1013 RMK BKN BKN200 VIS MIN 9999 WIND THR35 17009KT WIND THR17 /////KT BLU
LIED 231255Z 15008KT CAVOK 34/21 Q1013 RMK BKN BKN200 VIS MIN 9999 WIND THR35 16006KT WIND THR17 /////KT BLU
LIED 231155Z 17005KT CAVOK 34/21 Q1013 RMK SCT SCT200 VIS MIN 9999 WIND THR35 18005KT WIND THR17 /////KT BLU
LIED 231055Z 22002KT CAVOK 33/16 Q1013 RMK SCT SCT200 VIS MIN 9999 WIND THR35 18003KT WIND THR17 /////KT BLU
LIED 230955Z 26003KT CAVOK 32/16 Q1014 RMK SCT SCT200 VIS MIN 9999 WIND THR35 16002KT WIND THR17 /////KT BLU
LIED 230855Z 23003KT CAVOK 28/21 Q1013 RMK SCT SCT200 VIS MIN 9999 WIND THR35 30002KT WIND THR17 /////KT BLU